AFR34DB LFPG-LFRB
Flight info
| Callsign | AFR34DB |
|---|---|
| Flight time | 0h 52m |
| Altitude | 36000 |
| Route | LGL UN491 UPALO/N0428F350 UN585 FEJAC DCT BADUR T120 ANLEV |
| Aircraft | A20N/M-SDE2E3FGHIRWXY/LB1 |
Departure
| Time | 2026-05-05 08:40 |
|---|---|
| Airport | Charles de Gaulle International Airport (LFPG) |
Arrival
| Time | 2026-05-05 09:32 |
|---|---|
| Airport | Brest Bretagne airport (LFRB) |
| Time | Latitude | Longitude | Altitude | Speed | Heading |
|---|---|---|---|---|---|
| 2026-05-05 08:14 | 49.00685 | 2.58015 | 0 ft | 0 kts | 254° |
| 2026-05-05 08:27 | 49.00686 | 2.58017 | 0 ft | 2 kts | 254° |
| 2026-05-05 08:28 | 49.00690 | 2.58054 | 328 ft | 4 kts | 270° |
| 2026-05-05 08:28 | 49.00686 | 2.58094 | 353 ft | 4 kts | 295° |
| 2026-05-05 08:28 | 49.00671 | 2.58126 | 363 ft | 4 kts | 325° |
| 2026-05-05 08:28 | 49.00649 | 2.58140 | 362 ft | 2 kts | 355° |
| 2026-05-05 08:29 | 49.00648 | 2.58141 | 361 ft | 0 kts | 355° |
| 2026-05-05 08:33 | 49.00651 | 2.58140 | 359 ft | 3 kts | 355° |
| 2026-05-05 08:33 | 49.00750 | 2.58128 | 361 ft | 18 kts | 355° |
| 2026-05-05 08:33 | 49.00876 | 2.58090 | 359 ft | 19 kts | 334° |
| 2026-05-05 08:34 | 49.00895 | 2.57907 | 363 ft | 20 kts | 261° |
| 2026-05-05 08:34 | 49.00891 | 2.57696 | 359 ft | 21 kts | 264° |
| 2026-05-05 08:34 | 49.00868 | 2.57471 | 355 ft | 22 kts | 264° |
| 2026-05-05 08:34 | 49.00854 | 2.57235 | 361 ft | 23 kts | 265° |
| 2026-05-05 08:35 | 49.00842 | 2.56981 | 355 ft | 25 kts | 266° |
| 2026-05-05 08:35 | 49.00831 | 2.56712 | 355 ft | 26 kts | 267° |
| 2026-05-05 08:35 | 49.00812 | 2.56433 | 358 ft | 27 kts | 261° |
| 2026-05-05 08:35 | 49.00784 | 2.56144 | 355 ft | 28 kts | 262° |
| 2026-05-05 08:36 | 49.00758 | 2.55846 | 355 ft | 29 kts | 263° |
| 2026-05-05 08:36 | 49.00735 | 2.55538 | 361 ft | 28 kts | 265° |
| 2026-05-05 08:36 | 49.00697 | 2.55377 | 355 ft | 13 kts | 201° |
| 2026-05-05 08:36 | 49.00605 | 2.55408 | 358 ft | 15 kts | 159° |
| 2026-05-05 08:37 | 49.00495 | 2.55457 | 354 ft | 18 kts | 166° |
| 2026-05-05 08:37 | 49.00370 | 2.55502 | 360 ft | 20 kts | 167° |
| 2026-05-05 08:37 | 49.00232 | 2.55557 | 353 ft | 21 kts | 160° |
| 2026-05-05 08:37 | 49.00086 | 2.55623 | 359 ft | 23 kts | 165° |
| 2026-05-05 08:38 | 48.99944 | 2.55726 | 356 ft | 23 kts | 133° |
| 2026-05-05 08:38 | 48.99795 | 2.55788 | 354 ft | 24 kts | 185° |
| 2026-05-05 08:38 | 48.99639 | 2.55832 | 362 ft | 23 kts | 149° |
| 2026-05-05 08:38 | 48.99605 | 2.55910 | 353 ft | 5 kts | 80° |
| 2026-05-05 08:39 | 48.99612 | 2.55959 | 353 ft | 4 kts | 78° |
| 2026-05-05 08:39 | 48.99617 | 2.56010 | 356 ft | 6 kts | 83° |
| 2026-05-05 08:39 | 48.99625 | 2.56334 | 362 ft | 64 kts | 85° |
| 2026-05-05 08:39 | 48.99681 | 2.57355 | 351 ft | 132 kts | 86° |
| 2026-05-05 08:40 | 48.99790 | 2.59072 | 449 ft | 181 kts | 83° |
| 2026-05-05 08:40 | 48.99883 | 2.60910 | 1455 ft | 169 kts | 84° |
| 2026-05-05 08:40 | 48.99959 | 2.62691 | 2432 ft | 172 kts | 84° |
| 2026-05-05 08:40 | 49.00051 | 2.64572 | 2982 ft | 190 kts | 83° |
| 2026-05-05 08:41 | 49.00163 | 2.66652 | 3523 ft | 206 kts | 83° |
| 2026-05-05 08:41 | 49.00293 | 2.68922 | 4003 ft | 226 kts | 84° |
| 2026-05-05 08:41 | 49.00436 | 2.71394 | 4703 ft | 235 kts | 85° |
| 2026-05-05 08:41 | 49.00567 | 2.73861 | 5527 ft | 238 kts | 86° |
| 2026-05-05 08:42 | 49.00697 | 2.76403 | 6301 ft | 244 kts | 86° |
| 2026-05-05 08:42 | 49.00737 | 2.78999 | 7085 ft | 247 kts | 99° |
| 2026-05-05 08:42 | 49.00454 | 2.81612 | 7830 ft | 253 kts | 100° |
| 2026-05-05 08:42 | 49.00155 | 2.84274 | 8602 ft | 257 kts | 101° |
| 2026-05-05 08:43 | 48.99854 | 2.86933 | 9325 ft | 262 kts | 100° |
| 2026-05-05 08:43 | 48.99550 | 2.89627 | 10046 ft | 266 kts | 100° |
| 2026-05-05 08:43 | 48.99233 | 2.92426 | 10775 ft | 269 kts | 100° |
| 2026-05-05 08:43 | 48.98915 | 2.95250 | 11469 ft | 274 kts | 101° |
| 2026-05-05 08:44 | 48.98541 | 2.97781 | 12050 ft | 275 kts | 114° |
| 2026-05-05 08:44 | 48.97825 | 2.99602 | 12617 ft | 271 kts | 134° |
| 2026-05-05 08:44 | 48.95757 | 3.01581 | 13537 ft | 270 kts | 167° |
| 2026-05-05 08:44 | 48.94490 | 3.01792 | 13890 ft | 276 kts | 182° |
| 2026-05-05 08:45 | 48.92631 | 3.01066 | 14067 ft | 301 kts | 206° |
| 2026-05-05 08:45 | 48.90941 | 2.98995 | 14263 ft | 327 kts | 230° |
| 2026-05-05 08:45 | 48.89830 | 2.95848 | 14440 ft | 352 kts | 251° |
| 2026-05-05 08:45 | 48.89287 | 2.92201 | 14789 ft | 367 kts | 259° |
| 2026-05-05 08:46 | 48.88850 | 2.88356 | 15476 ft | 371 kts | 258° |
| 2026-05-05 08:46 | 48.88341 | 2.84502 | 16197 ft | 373 kts | 256° |
| 2026-05-05 08:46 | 48.87740 | 2.80658 | 16850 ft | 377 kts | 254° |
| 2026-05-05 08:46 | 48.87096 | 2.76933 | 17482 ft | 379 kts | 253° |
| 2026-05-05 08:47 | 48.86392 | 2.73054 | 18118 ft | 383 kts | 252° |
| 2026-05-05 08:47 | 48.85812 | 2.69922 | 18627 ft | 385 kts | 252° |
| 2026-05-05 08:47 | 48.85081 | 2.65995 | 19247 ft | 388 kts | 252° |
| 2026-05-05 08:47 | 48.84342 | 2.62034 | 19830 ft | 391 kts | 252° |
| 2026-05-05 08:48 | 48.83596 | 2.58037 | 20390 ft | 395 kts | 252° |
| 2026-05-05 08:48 | 48.82846 | 2.54016 | 20966 ft | 398 kts | 252° |
| 2026-05-05 08:48 | 48.82116 | 2.50108 | 21509 ft | 401 kts | 252° |
| 2026-05-05 08:48 | 48.81352 | 2.46024 | 22050 ft | 404 kts | 252° |
| 2026-05-05 08:49 | 48.80615 | 2.41895 | 22536 ft | 409 kts | 256° |
| 2026-05-05 08:49 | 48.80184 | 2.37605 | 23051 ft | 414 kts | 263° |
| 2026-05-05 08:49 | 48.80113 | 2.33210 | 23532 ft | 418 kts | 269° |
| 2026-05-05 08:49 | 48.80134 | 2.28786 | 24045 ft | 421 kts | 268° |
| 2026-05-05 08:50 | 48.80146 | 2.24451 | 24509 ft | 424 kts | 268° |
| 2026-05-05 08:50 | 48.80153 | 2.19961 | 24936 ft | 428 kts | 268° |
| 2026-05-05 08:50 | 48.80156 | 2.15436 | 25391 ft | 430 kts | 268° |
| 2026-05-05 08:50 | 48.80157 | 2.10878 | 25814 ft | 434 kts | 267° |
| 2026-05-05 08:51 | 48.80155 | 2.06292 | 26222 ft | 436 kts | 267° |
| 2026-05-05 08:51 | 48.80152 | 2.01671 | 26637 ft | 439 kts | 266° |
| 2026-05-05 08:51 | 48.80147 | 1.97030 | 27039 ft | 441 kts | 266° |
| 2026-05-05 08:51 | 48.80141 | 1.92370 | 27424 ft | 443 kts | 266° |
| 2026-05-05 08:52 | 48.80132 | 1.87746 | 27816 ft | 445 kts | 266° |
| 2026-05-05 08:52 | 48.80122 | 1.83038 | 28191 ft | 447 kts | 265° |
| 2026-05-05 08:52 | 48.80109 | 1.78316 | 28529 ft | 449 kts | 265° |
| 2026-05-05 08:52 | 48.80095 | 1.73612 | 28858 ft | 451 kts | 265° |
| 2026-05-05 08:53 | 48.80079 | 1.68849 | 29181 ft | 452 kts | 265° |
| 2026-05-05 08:53 | 48.80061 | 1.64070 | 29544 ft | 453 kts | 264° |
| 2026-05-05 08:53 | 48.80040 | 1.59287 | 29874 ft | 455 kts | 264° |
| 2026-05-05 08:53 | 48.80018 | 1.54489 | 30204 ft | 456 kts | 264° |
| 2026-05-05 08:54 | 48.79991 | 1.49679 | 30439 ft | 458 kts | 265° |
| 2026-05-05 08:54 | 48.79961 | 1.44823 | 30657 ft | 461 kts | 265° |
| 2026-05-05 08:54 | 48.79932 | 1.39951 | 30986 ft | 462 kts | 265° |
| 2026-05-05 08:54 | 48.79902 | 1.35070 | 31348 ft | 462 kts | 265° |
| 2026-05-05 08:55 | 48.79870 | 1.30206 | 31716 ft | 461 kts | 265° |
| 2026-05-05 08:55 | 48.79836 | 1.25346 | 32098 ft | 460 kts | 265° |
| 2026-05-05 08:55 | 48.79800 | 1.20496 | 32447 ft | 460 kts | 264° |
| 2026-05-05 08:55 | 48.79761 | 1.15651 | 32780 ft | 459 kts | 264° |
| 2026-05-05 08:56 | 48.79721 | 1.10819 | 33130 ft | 458 kts | 264° |
| 2026-05-05 08:56 | 48.79679 | 1.06059 | 33444 ft | 457 kts | 264° |
| 2026-05-05 08:56 | 48.79634 | 1.01239 | 33745 ft | 457 kts | 263° |
| 2026-05-05 08:56 | 48.79587 | 0.96434 | 34073 ft | 455 kts | 263° |
| 2026-05-05 08:57 | 48.79539 | 0.91640 | 34365 ft | 454 kts | 263° |
| 2026-05-05 08:57 | 48.79487 | 0.86862 | 34689 ft | 453 kts | 263° |
| 2026-05-05 08:57 | 48.79434 | 0.82104 | 34842 ft | 451 kts | 263° |
| 2026-05-05 08:58 | 48.79323 | 0.72607 | 34883 ft | 449 kts | 263° |
| 2026-05-05 08:58 | 48.79205 | 0.63150 | 34882 ft | 449 kts | 263° |
| 2026-05-05 08:59 | 48.79091 | 0.53663 | 34881 ft | 453 kts | 267° |
| 2026-05-05 08:59 | 48.79614 | 0.44083 | 34886 ft | 456 kts | 271° |
| 2026-05-05 09:00 | 48.80233 | 0.34522 | 34879 ft | 455 kts | 271° |
| 2026-05-05 09:00 | 48.80827 | 0.25046 | 34879 ft | 454 kts | 271° |
| 2026-05-05 09:01 | 48.81412 | 0.15504 | 34876 ft | 454 kts | 271° |
| 2026-05-05 09:01 | 48.81989 | 0.05970 | 34880 ft | 454 kts | 271° |
| 2026-05-05 09:02 | 48.82557 | -0.03561 | 34876 ft | 454 kts | 271° |
| 2026-05-05 09:02 | 48.83118 | -0.13096 | 34874 ft | 453 kts | 271° |
| 2026-05-05 09:03 | 48.83671 | -0.22627 | 34874 ft | 453 kts | 271° |
| 2026-05-05 09:03 | 48.84203 | -0.32162 | 34875 ft | 453 kts | 270° |
| 2026-05-05 09:04 | 48.84709 | -0.41697 | 34904 ft | 453 kts | 270° |
| 2026-05-05 09:04 | 48.85210 | -0.51236 | 34906 ft | 454 kts | 270° |
| 2026-05-05 09:05 | 48.85705 | -0.60789 | 34914 ft | 454 kts | 270° |
| 2026-05-05 09:05 | 48.86193 | -0.70354 | 34914 ft | 455 kts | 270° |
| 2026-05-05 09:06 | 48.86675 | -0.79926 | 34916 ft | 455 kts | 270° |
| 2026-05-05 09:06 | 48.87148 | -0.89502 | 34920 ft | 455 kts | 270° |
| 2026-05-05 09:07 | 48.87613 | -0.99079 | 34920 ft | 455 kts | 270° |
| 2026-05-05 09:07 | 48.88070 | -1.08674 | 34919 ft | 455 kts | 270° |
| 2026-05-05 09:08 | 48.88519 | -1.18259 | 34916 ft | 455 kts | 270° |
| 2026-05-05 09:08 | 48.88956 | -1.27734 | 34918 ft | 454 kts | 270° |
| 2026-05-05 09:09 | 48.89387 | -1.37316 | 34920 ft | 454 kts | 271° |
| 2026-05-05 09:09 | 48.89601 | -1.42118 | 34781 ft | 457 kts | 271° |
| 2026-05-05 09:09 | 48.89814 | -1.46940 | 34533 ft | 457 kts | 271° |
| 2026-05-05 09:09 | 48.90027 | -1.51763 | 34284 ft | 458 kts | 271° |
| 2026-05-05 09:10 | 48.90238 | -1.56588 | 34034 ft | 458 kts | 270° |
| 2026-05-05 09:10 | 48.90447 | -1.61437 | 33578 ft | 461 kts | 270° |
| 2026-05-05 09:10 | 48.90655 | -1.66314 | 32804 ft | 465 kts | 270° |
| 2026-05-05 09:10 | 48.90817 | -1.71250 | 31798 ft | 471 kts | 266° |
| 2026-05-05 09:11 | 48.90631 | -1.76192 | 31124 ft | 465 kts | 259° |
| 2026-05-05 09:11 | 48.90093 | -1.80989 | 30575 ft | 456 kts | 252° |
| 2026-05-05 09:11 | 48.89338 | -1.85636 | 30002 ft | 451 kts | 251° |
| 2026-05-05 09:11 | 48.88594 | -1.90246 | 29425 ft | 448 kts | 251° |
| 2026-05-05 09:12 | 48.87857 | -1.94813 | 28856 ft | 444 kts | 251° |
| 2026-05-05 09:12 | 48.87122 | -1.99350 | 28295 ft | 440 kts | 251° |
| 2026-05-05 09:12 | 48.86391 | -2.03844 | 27716 ft | 437 kts | 251° |
| 2026-05-05 09:12 | 48.85661 | -2.08309 | 27172 ft | 433 kts | 252° |
| 2026-05-05 09:13 | 48.84936 | -2.12725 | 26606 ft | 430 kts | 252° |
| 2026-05-05 09:13 | 48.84213 | -2.17117 | 26049 ft | 427 kts | 252° |
| 2026-05-05 09:13 | 48.83495 | -2.21466 | 25500 ft | 424 kts | 252° |
| 2026-05-05 09:13 | 48.82782 | -2.25769 | 24949 ft | 421 kts | 252° |
| 2026-05-05 09:14 | 48.82068 | -2.30051 | 24400 ft | 417 kts | 254° |
| 2026-05-05 09:14 | 48.81364 | -2.34266 | 23854 ft | 414 kts | 254° |
| 2026-05-05 09:14 | 48.80659 | -2.38492 | 23306 ft | 411 kts | 254° |
| 2026-05-05 09:14 | 48.79962 | -2.42668 | 22765 ft | 408 kts | 254° |
| 2026-05-05 09:15 | 48.79267 | -2.46829 | 22214 ft | 405 kts | 254° |
| 2026-05-05 09:15 | 48.78587 | -2.50886 | 21684 ft | 402 kts | 254° |
| 2026-05-05 09:15 | 48.77900 | -2.54974 | 21139 ft | 398 kts | 253° |
| 2026-05-05 09:15 | 48.77217 | -2.59031 | 20608 ft | 395 kts | 253° |
| 2026-05-05 09:16 | 48.76540 | -2.63046 | 20072 ft | 392 kts | 253° |
| 2026-05-05 09:16 | 48.75866 | -2.67035 | 19543 ft | 389 kts | 253° |
| 2026-05-05 09:16 | 48.75199 | -2.70976 | 19013 ft | 385 kts | 253° |
| 2026-05-05 09:16 | 48.74535 | -2.74891 | 18486 ft | 382 kts | 253° |
| 2026-05-05 09:17 | 48.73875 | -2.78774 | 17962 ft | 379 kts | 253° |
| 2026-05-05 09:17 | 48.73219 | -2.82622 | 17440 ft | 376 kts | 253° |
| 2026-05-05 09:17 | 48.72567 | -2.86433 | 16920 ft | 373 kts | 253° |
| 2026-05-05 09:17 | 48.71919 | -2.90216 | 16408 ft | 370 kts | 253° |
| 2026-05-05 09:18 | 48.71273 | -2.93973 | 15890 ft | 367 kts | 253° |
| 2026-05-05 09:18 | 48.70630 | -2.97699 | 15385 ft | 365 kts | 253° |
| 2026-05-05 09:18 | 48.69986 | -3.01399 | 14872 ft | 362 kts | 254° |
| 2026-05-05 09:18 | 48.69344 | -3.05068 | 14379 ft | 360 kts | 254° |
| 2026-05-05 09:19 | 48.68728 | -3.08735 | 13880 ft | 358 kts | 256° |
| 2026-05-05 09:19 | 48.68152 | -3.12388 | 13384 ft | 356 kts | 256° |
| 2026-05-05 09:19 | 48.67588 | -3.16024 | 12892 ft | 354 kts | 256° |
| 2026-05-05 09:19 | 48.67023 | -3.19642 | 12393 ft | 352 kts | 256° |
| 2026-05-05 09:20 | 48.66458 | -3.23218 | 11914 ft | 351 kts | 256° |
| 2026-05-05 09:20 | 48.65886 | -3.26798 | 11423 ft | 349 kts | 256° |
| 2026-05-05 09:20 | 48.65316 | -3.30348 | 10926 ft | 347 kts | 257° |
| 2026-05-05 09:20 | 48.64745 | -3.33886 | 10455 ft | 345 kts | 257° |
| 2026-05-05 09:21 | 48.64183 | -3.37366 | 10217 ft | 335 kts | 257° |
| 2026-05-05 09:21 | 48.63647 | -3.40675 | 10091 ft | 322 kts | 257° |
| 2026-05-05 09:21 | 48.63127 | -3.43892 | 9968 ft | 309 kts | 257° |
| 2026-05-05 09:21 | 48.62949 | -3.44988 | 9884 ft | 307 kts | 257° |
| 2026-05-05 09:22 | 48.62445 | -3.48100 | 9548 ft | 303 kts | 257° |
| 2026-05-05 09:22 | 48.61967 | -3.51051 | 9280 ft | 298 kts | 257° |
| 2026-05-05 09:22 | 48.61475 | -3.54080 | 8908 ft | 296 kts | 257° |
| 2026-05-05 09:22 | 48.60985 | -3.57079 | 8548 ft | 293 kts | 257° |
| 2026-05-05 09:23 | 48.60489 | -3.60067 | 8184 ft | 292 kts | 257° |
| 2026-05-05 09:23 | 48.59994 | -3.63036 | 7811 ft | 291 kts | 257° |
| 2026-05-05 09:23 | 48.59499 | -3.65993 | 7440 ft | 290 kts | 257° |
| 2026-05-05 09:23 | 48.59006 | -3.68939 | 7064 ft | 289 kts | 257° |
| 2026-05-05 09:24 | 48.58517 | -3.71868 | 6714 ft | 287 kts | 257° |
| 2026-05-05 09:24 | 48.58029 | -3.74785 | 6348 ft | 286 kts | 257° |
| 2026-05-05 09:24 | 48.57543 | -3.77697 | 5978 ft | 286 kts | 257° |
| 2026-05-05 09:24 | 48.57059 | -3.80590 | 5598 ft | 285 kts | 257° |
| 2026-05-05 09:25 | 48.56571 | -3.83490 | 5228 ft | 285 kts | 257° |
| 2026-05-05 09:25 | 48.56083 | -3.86388 | 4854 ft | 285 kts | 257° |
| 2026-05-05 09:25 | 48.55591 | -3.89290 | 4478 ft | 285 kts | 257° |
| 2026-05-05 09:25 | 48.55100 | -3.92186 | 4103 ft | 285 kts | 257° |
| 2026-05-05 09:26 | 48.54616 | -3.95039 | 3747 ft | 284 kts | 258° |
| 2026-05-05 09:26 | 48.54213 | -3.97879 | 3609 ft | 272 kts | 264° |
| 2026-05-05 09:26 | 48.53903 | -4.00685 | 3304 ft | 270 kts | 261° |
| 2026-05-05 09:26 | 48.53427 | -4.03400 | 3144 ft | 263 kts | 256° |
| 2026-05-05 09:27 | 48.52870 | -4.05972 | 3050 ft | 253 kts | 254° |
| 2026-05-05 09:27 | 48.52318 | -4.08436 | 3000 ft | 241 kts | 255° |
| 2026-05-05 09:27 | 48.51791 | -4.10780 | 2999 ft | 233 kts | 255° |
| 2026-05-05 09:27 | 48.51267 | -4.13111 | 3000 ft | 235 kts | 255° |
| 2026-05-05 09:28 | 48.50821 | -4.15083 | 2986 ft | 217 kts | 255° |
| 2026-05-05 09:28 | 48.50354 | -4.17159 | 3002 ft | 212 kts | 255° |
| 2026-05-05 09:28 | 48.49883 | -4.19260 | 2997 ft | 210 kts | 255° |
| 2026-05-05 09:28 | 48.49409 | -4.21358 | 2909 ft | 212 kts | 255° |
| 2026-05-05 09:29 | 48.48943 | -4.23433 | 2638 ft | 206 kts | 253° |
| 2026-05-05 09:29 | 48.48496 | -4.25418 | 2387 ft | 196 kts | 253° |
| 2026-05-05 09:29 | 48.48067 | -4.27307 | 2105 ft | 184 kts | 252° |
| 2026-05-05 09:29 | 48.47665 | -4.29102 | 1854 ft | 176 kts | 252° |
| 2026-05-05 09:30 | 48.47293 | -4.30747 | 1643 ft | 159 kts | 251° |
| 2026-05-05 09:30 | 48.46948 | -4.32278 | 1420 ft | 147 kts | 251° |
| 2026-05-05 09:30 | 48.46628 | -4.33684 | 1251 ft | 141 kts | 250° |
| 2026-05-05 09:30 | 48.46315 | -4.35085 | 1050 ft | 139 kts | 250° |
| 2026-05-05 09:31 | 48.46007 | -4.36446 | 867 ft | 138 kts | 250° |
| 2026-05-05 09:31 | 48.45711 | -4.37766 | 689 ft | 137 kts | 250° |
| 2026-05-05 09:31 | 48.45407 | -4.39109 | 516 ft | 136 kts | 250° |
| 2026-05-05 09:31 | 48.45105 | -4.40447 | 336 ft | 134 kts | 250° |
| 2026-05-05 09:32 | 48.44824 | -4.41664 | 312 ft | 93 kts | 251° |
| 2026-05-05 09:32 | 48.44709 | -4.42113 | 312 ft | 28 kts | 219° |
| 2026-05-05 09:32 | 48.44563 | -4.42101 | 310 ft | 17 kts | 161° |
| 2026-05-05 09:32 | 48.44453 | -4.42093 | 310 ft | 16 kts | 185° |
| 2026-05-05 09:33 | 48.44410 | -4.42101 | 310 ft | 0 kts | 191° |